createdAt,value
2019-01-04T00:02:18.239Z,1.40
2019-01-04T00:07:47.213Z,1.30
2019-01-04T00:10:28.052Z,1.40
2019-01-04T00:13:08.884Z,1.30
2019-01-04T00:18:37.682Z,1.60
2019-01-04T00:27:41.218Z,1.50
2019-01-04T00:39:11.185Z,1.60
2019-01-04T00:47:20.696Z,1.60
2019-01-04T00:50:20.825Z,1.80
2019-01-04T00:59:20.372Z,1.60
2019-01-04T01:02:01.369Z,1.60
2019-01-04T01:05:04.726Z,1.50
2019-01-04T01:10:30.425Z,1.70
2019-01-04T01:25:48.653Z,2.00
2019-01-04T01:28:29.122Z,2.00
2019-01-04T01:37:32.063Z,2.00
2019-01-04T01:40:12.268Z,1.80
2019-01-04T01:42:53.243Z,2.00
2019-01-04T01:45:34.305Z,1.90
2019-01-04T01:48:35.309Z,1.80
2019-01-04T01:51:34.741Z,2.20
2019-01-04T01:57:15.646Z,2.10
2019-01-04T01:59:56.063Z,2.20
2019-01-04T02:05:24.004Z,1.90
2019-01-04T02:10:56.847Z,1.80
2019-01-04T02:17:15.831Z,1.70
2019-01-04T02:22:44.240Z,2.10
2019-01-04T02:25:44.208Z,1.70
2019-01-04T02:28:25.304Z,2.00
2019-01-04T02:33:44.968Z,2.00
2019-01-04T02:39:13.384Z,1.70
2019-01-04T02:44:41.671Z,1.90
2019-01-04T02:50:45.866Z,1.80
2019-01-04T02:59:19.991Z,1.70
2019-01-04T03:05:00.332Z,1.80
2019-01-04T03:08:00.484Z,1.70
2019-01-04T03:14:00.075Z,1.70
2019-01-04T03:19:20.142Z,1.90
2019-01-04T03:24:48.670Z,1.90
2019-01-04T03:30:08.565Z,1.70
2019-01-04T03:32:49.686Z,1.90
2019-01-04T03:38:19.602Z,1.80
2019-01-04T03:43:59.112Z,1.70
2019-01-04T03:46:40.221Z,1.50
2019-01-04T03:49:22.098Z,1.50
2019-01-04T03:55:09.767Z,1.80
2019-01-04T04:03:47.935Z,1.50
2019-01-04T04:08:56.915Z,1.90
2019-01-04T04:18:26.913Z,1.80
2019-01-04T04:21:26.957Z,2.00
2019-01-04T04:24:09.214Z,1.80
2019-01-04T04:26:50.060Z,1.70
2019-01-04T04:29:30.903Z,1.70
2019-01-04T04:35:09.336Z,1.90
2019-01-04T04:40:37.973Z,2.00
2019-01-04T04:43:06.411Z,2.00
2019-01-04T04:49:33.299Z,1.80
2019-01-04T04:55:46.294Z,1.70
2019-01-04T04:58:27.093Z,2.00
2019-01-04T05:01:26.773Z,1.70
2019-01-04T05:07:12.282Z,1.80
2019-01-04T05:12:38.689Z,1.90
2019-01-04T05:18:14.442Z,1.80
2019-01-04T05:20:56.170Z,1.70
2019-01-04T05:29:42.101Z,2.00
2019-01-04T05:32:10.546Z,1.90
2019-01-04T05:35:35.387Z,2.10
2019-01-04T05:38:23.171Z,1.70
2019-01-04T05:41:03.888Z,2.00
2019-01-04T05:46:23.717Z,2.00
2019-01-04T05:51:52.257Z,1.90
2019-01-04T06:01:01.427Z,1.60
2019-01-04T06:03:29.867Z,2.00
2019-01-04T06:06:17.684Z,1.80
2019-01-04T06:09:06.537Z,1.70
2019-01-04T06:11:46.598Z,1.80
2019-01-04T06:14:15.042Z,2.00
2019-01-04T06:17:02.848Z,1.80
2019-01-04T06:23:03.422Z,1.80
2019-01-04T06:32:00.616Z,2.10
2019-01-04T06:37:29.814Z,2.00
2019-01-04T06:46:05.152Z,2.20
2019-01-04T06:48:46.260Z,2.10
2019-01-04T06:51:14.703Z,2.10
2019-01-04T06:54:02.513Z,2.20
2019-01-04T06:56:50.315Z,2.10
2019-01-04T07:05:23.997Z,2.40
2019-01-04T07:08:04.787Z,2.10
2019-01-04T07:10:45.949Z,2.20
2019-01-04T07:19:36.912Z,2.20
2019-01-04T07:28:33.106Z,2.40
2019-01-04T07:40:36.863Z,2.30
2019-01-04T07:46:22.473Z,2.20
2019-01-04T07:49:03.661Z,2.20
2019-01-04T07:55:22.881Z,2.40
2019-01-04T08:07:37.092Z,2.20
2019-01-04T08:13:07.212Z,2.20
2019-01-04T08:18:35.459Z,2.50
2019-01-04T08:33:45.882Z,2.50
2019-01-04T08:36:27.040Z,2.50
2019-01-04T08:42:31.162Z,2.50
2019-01-04T08:57:20.535Z,2.50
2019-01-04T09:00:20.428Z,2.70
2019-01-04T09:03:01.492Z,2.80
2019-01-04T09:05:42.318Z,2.60
2019-01-04T09:08:10.851Z,2.70
2019-01-04T09:10:51.850Z,2.70
2019-01-04T09:19:28.097Z,2.90
2019-01-04T09:24:57.343Z,2.70
2019-01-04T09:27:37.371Z,2.80
2019-01-04T09:30:18.539Z,2.70
2019-01-04T09:41:55.745Z,2.60
2019-01-04T09:44:36.509Z,2.60
2019-01-04T09:47:16.447Z,2.70
2019-01-04T09:49:58.705Z,2.80
2019-01-04T09:52:27.228Z,3.10
2019-01-04T09:55:15.029Z,3.10
2019-01-04T09:58:02.809Z,3.00
2019-01-04T10:00:43.923Z,3.10
2019-01-04T10:06:12.753Z,2.90
2019-01-04T10:11:41.306Z,3.10
2019-01-04T10:20:04.423Z,2.90
2019-01-04T10:22:44.966Z,3.10
2019-01-04T10:25:25.783Z,3.10
2019-01-04T10:28:06.576Z,3.10
2019-01-04T10:30:47.782Z,3.20
2019-01-04T10:33:28.594Z,3.10
2019-01-04T10:36:09.290Z,3.20
2019-01-04T10:38:50.402Z,3.30
2019-01-04T10:41:31.401Z,3.10
2019-01-04T10:47:02.545Z,3.30
2019-01-04T10:49:43.483Z,3.10
2019-01-04T10:52:24.300Z,3.10
2019-01-04T10:57:55.258Z,3.10
2019-01-04T11:12:00.944Z,3.40
2019-01-04T11:17:24.938Z,3.40
2019-01-04T11:22:44.705Z,3.40
2019-01-04T11:28:38.947Z,3.40
2019-01-04T11:34:08.011Z,3.20
2019-01-04T11:51:36.172Z,3.40
2019-01-04T11:57:22.620Z,3.40
2019-01-04T12:06:14.017Z,3.20
2019-01-04T12:08:58.339Z,3.20
2019-01-04T12:14:49.820Z,3.20
2019-01-04T12:23:40.315Z,3.00
2019-01-04T12:26:21.559Z,3.00
2019-01-04T12:32:10.377Z,3.00
2019-01-04T12:34:51.339Z,2.90
2019-01-04T12:40:39.246Z,2.80
2019-01-04T12:46:32.637Z,2.70
2019-01-04T12:52:01.074Z,2.80
2019-01-04T12:54:41.520Z,2.80
2019-01-04T12:57:10.104Z,2.80
2019-01-04T12:59:38.543Z,2.80
2019-01-04T13:02:07.150Z,3.00
2019-01-04T13:04:35.591Z,2.90
2019-01-04T13:07:04.194Z,2.80
2019-01-04T13:09:32.652Z,2.80
2019-01-04T13:12:01.126Z,2.80
2019-01-04T13:14:29.574Z,2.90
2019-01-04T13:16:58.041Z,2.80
2019-01-04T13:19:26.558Z,2.90
2019-01-04T13:21:55.034Z,2.90
2019-01-04T13:24:23.466Z,3.00
2019-01-04T13:26:51.939Z,2.90
2019-01-04T13:29:20.387Z,2.90
2019-01-04T13:31:48.935Z,2.90
2019-01-04T13:34:17.434Z,2.90
2019-01-04T13:36:45.866Z,2.90
2019-01-04T13:39:14.327Z,3.00
2019-01-04T13:41:42.851Z,3.30
2019-01-04T13:44:11.367Z,3.10
2019-01-04T13:46:39.812Z,3.00
2019-01-04T13:49:08.297Z,3.10
2019-01-04T13:51:36.735Z,3.00
2019-01-04T13:54:05.189Z,3.00
2019-01-04T13:56:33.694Z,3.00
2019-01-04T13:59:02.152Z,3.10
2019-01-04T14:01:30.599Z,3.10
2019-01-04T14:03:59.055Z,3.10
2019-01-04T14:06:27.505Z,3.00
2019-01-04T14:08:55.977Z,3.00
2019-01-04T14:11:24.436Z,3.10
2019-01-04T14:13:52.927Z,3.10
2019-01-04T14:16:21.519Z,3.20
2019-01-04T14:18:50.003Z,3.10
2019-01-04T14:21:18.452Z,3.10
2019-01-04T14:23:46.927Z,3.00
2019-01-04T14:26:15.501Z,3.20
2019-01-04T14:28:43.982Z,3.20
2019-01-04T14:31:12.431Z,3.20
2019-01-04T14:33:40.967Z,3.20
2019-01-04T14:36:09.484Z,3.10
2019-01-04T14:38:37.955Z,3.10
2019-01-04T14:41:06.406Z,3.10
2019-01-04T14:43:34.924Z,3.10
2019-01-04T14:46:03.383Z,3.20
2019-01-04T14:48:31.832Z,3.10
2019-01-04T14:51:00.282Z,3.10
2019-01-04T14:53:28.734Z,3.10
2019-01-04T14:55:57.205Z,3.20
2019-01-04T14:58:25.650Z,3.10
2019-01-04T15:00:54.116Z,3.10
2019-01-04T15:03:22.566Z,3.00
2019-01-04T15:05:51.162Z,3.00
2019-01-04T15:08:19.650Z,2.90
2019-01-04T15:10:48.116Z,2.90
2019-01-04T15:13:16.562Z,2.80
2019-01-04T15:15:45.016Z,2.80
2019-01-04T15:18:13.456Z,2.90
2019-01-04T15:20:41.938Z,2.90
2019-01-04T15:23:10.396Z,2.80
2019-01-04T15:25:38.871Z,2.80
2019-01-04T15:28:07.307Z,2.80
2019-01-04T15:30:35.791Z,2.90
2019-01-04T15:33:04.230Z,2.90
2019-01-04T15:35:32.689Z,2.90
2019-01-04T15:38:01.133Z,2.80
2019-01-04T15:40:29.590Z,2.90
2019-01-04T15:42:58.031Z,2.90
2019-01-04T15:45:26.479Z,2.80
2019-01-04T15:47:54.935Z,2.80
2019-01-04T15:50:23.386Z,3.00
2019-01-04T15:52:51.819Z,3.00
2019-01-04T15:55:20.299Z,2.90
2019-01-04T15:57:48.745Z,2.80
2019-01-04T16:00:17.211Z,2.70
2019-01-04T16:02:45.653Z,2.80
2019-01-04T16:05:14.120Z,2.90
2019-01-04T16:07:42.565Z,2.80
2019-01-04T16:10:11.089Z,2.90
2019-01-04T16:12:39.628Z,2.80
2019-01-04T16:15:09.697Z,2.80
2019-01-04T16:17:38.167Z,3.00
2019-01-04T16:20:09.549Z,2.90
2019-01-04T16:22:38.017Z,3.00
2019-01-04T16:25:07.597Z,2.90
2019-01-04T16:27:36.061Z,2.90
2019-01-04T16:30:06.708Z,3.00
2019-01-04T16:32:35.184Z,2.80
2019-01-04T16:35:03.695Z,2.80
2019-01-04T16:37:32.166Z,2.80
2019-01-04T16:40:00.684Z,2.90
2019-01-04T16:42:29.202Z,3.00
2019-01-04T16:44:57.648Z,3.00
2019-01-04T16:47:26.126Z,3.00
2019-01-04T16:49:54.563Z,3.10
2019-01-04T16:52:23.099Z,3.00
2019-01-04T16:54:51.538Z,3.10
2019-01-04T16:57:20.010Z,3.00
2019-01-04T16:59:48.439Z,3.00
2019-01-04T17:02:16.907Z,2.90
2019-01-04T17:04:45.372Z,3.10
2019-01-04T17:07:13.885Z,3.00
2019-01-04T17:09:42.402Z,3.00
2019-01-04T17:12:10.872Z,3.10
2019-01-04T17:14:39.326Z,3.20
2019-01-04T17:17:07.918Z,3.30
2019-01-04T17:19:40.778Z,3.20
2019-01-04T17:22:06.633Z,3.20
2019-01-04T17:24:35.157Z,3.10
2019-01-04T17:27:03.623Z,3.30
2019-01-04T17:29:32.064Z,3.40
2019-01-04T17:32:00.544Z,3.40
2019-01-04T17:34:29.010Z,3.40
2019-01-04T17:36:57.453Z,3.40
2019-01-04T17:39:25.913Z,3.40
2019-01-04T17:41:54.426Z,3.50
2019-01-04T17:44:22.938Z,3.50
2019-01-04T17:46:51.388Z,3.50
2019-01-04T17:49:19.927Z,3.50
2019-01-04T17:51:48.518Z,3.60
2019-01-04T17:54:16.977Z,3.60
2019-01-04T17:56:45.419Z,3.50
2019-01-04T17:59:13.887Z,3.50
2019-01-04T18:01:42.345Z,3.50
2019-01-04T18:04:10.910Z,3.70
2019-01-04T18:06:39.343Z,3.60
2019-01-04T18:09:07.896Z,3.70
2019-01-04T18:11:36.339Z,3.70
2019-01-04T18:14:04.817Z,3.90
2019-01-04T18:16:33.259Z,3.80
2019-01-04T18:19:01.713Z,3.80
2019-01-04T18:21:30.242Z,3.90
2019-01-04T18:23:58.703Z,3.90
2019-01-04T18:26:27.168Z,3.80
2019-01-04T18:28:55.663Z,3.80
2019-01-04T18:31:24.167Z,3.80
2019-01-04T18:33:52.686Z,3.80
2019-01-04T18:36:21.121Z,3.90
2019-01-04T18:38:49.600Z,3.90
2019-01-04T18:41:18.044Z,3.90
2019-01-04T18:43:46.538Z,3.90
2019-01-04T18:46:15.145Z,4.10
2019-01-04T18:48:43.630Z,4.20
2019-01-04T18:51:12.075Z,4.20
2019-01-04T18:53:40.572Z,4.20
2019-01-04T18:56:09.204Z,4.20
2019-01-04T18:58:37.733Z,4.30
2019-01-04T19:01:06.166Z,4.30
2019-01-04T19:03:34.637Z,4.30
2019-01-04T19:06:03.094Z,4.40
2019-01-04T19:08:31.546Z,4.30
2019-01-04T19:11:01.672Z,4.50
2019-01-04T19:13:31.748Z,4.40
2019-01-04T19:16:00.228Z,4.50
2019-01-04T19:18:28.760Z,4.50
2019-01-04T19:20:57.237Z,4.60
2019-01-04T19:23:25.698Z,4.40
2019-01-04T19:25:54.158Z,4.50
2019-01-04T19:28:22.611Z,4.70
2019-01-04T19:30:51.235Z,4.50
2019-01-04T19:33:19.691Z,4.40
2019-01-04T19:35:48.183Z,4.60
2019-01-04T19:38:16.852Z,4.60
2019-01-04T19:40:45.403Z,4.60
2019-01-04T19:43:13.850Z,4.40
2019-01-04T19:45:42.344Z,4.50
2019-01-04T19:48:10.861Z,4.60
2019-01-04T19:50:39.407Z,4.50
2019-01-04T19:53:07.915Z,4.70
2019-01-04T19:55:36.459Z,4.60
2019-01-04T19:58:04.981Z,4.50
2019-01-04T20:00:33.455Z,4.50
2019-01-04T20:03:01.900Z,4.60
2019-01-04T20:05:37.799Z,4.70
2019-01-04T20:08:40.796Z,4.60
2019-01-04T20:11:51.343Z,4.70
2019-01-04T20:14:42.416Z,4.70
2019-01-04T20:17:18.411Z,4.80
2019-01-04T20:20:05.102Z,4.80
2019-01-04T20:22:51.285Z,4.80
2019-01-04T20:25:21.357Z,4.80
2019-01-04T20:27:53.897Z,4.80
2019-01-04T20:30:23.971Z,4.70
2019-01-04T20:32:54.080Z,4.80
2019-01-04T20:35:32.889Z,4.80
2019-01-04T20:38:05.498Z,4.90
2019-01-04T20:40:38.519Z,4.80
2019-01-04T20:43:08.635Z,4.80
2019-01-04T20:45:53.500Z,4.80
2019-01-04T20:48:29.147Z,4.80
2019-01-04T20:51:02.238Z,4.80
2019-01-04T20:53:48.348Z,4.80
2019-01-04T20:56:27.552Z,4.80
2019-01-04T20:59:00.405Z,5.00
2019-01-04T21:01:46.852Z,4.90
2019-01-04T21:04:29.010Z,5.00
2019-01-04T21:07:01.851Z,4.80
2019-01-04T21:09:37.950Z,4.90
2019-01-04T21:12:15.384Z,5.00
2019-01-04T21:14:51.269Z,4.90
2019-01-04T21:17:30.155Z,5.00
2019-01-04T21:20:00.262Z,5.00
2019-01-04T21:22:39.334Z,4.90
2019-01-04T21:25:15.618Z,4.80
2019-01-04T21:27:51.284Z,4.70
2019-01-04T21:30:24.071Z,4.60
2019-01-04T21:33:10.131Z,4.60
2019-01-04T21:35:40.260Z,4.40
2019-01-04T21:38:27.995Z,4.40
2019-01-04T21:40:58.098Z,4.40
2019-01-04T21:43:42.889Z,4.30
2019-01-04T21:46:18.705Z,4.40
2019-01-04T21:49:03.399Z,4.20
2019-01-04T21:51:45.240Z,4.20
2019-01-04T21:54:16.415Z,4.20
2019-01-04T21:56:55.330Z,4.20
2019-01-04T21:59:25.431Z,4.10
2019-01-04T22:01:58.687Z,4.20
2019-01-04T22:04:31.280Z,4.30
2019-01-04T22:07:04.261Z,4.20
2019-01-04T22:09:52.042Z,4.30
2019-01-04T22:12:24.749Z,4.30
2019-01-04T22:14:56.443Z,4.30
2019-01-04T22:17:42.247Z,4.30
2019-01-04T22:20:18.204Z,4.20
2019-01-04T22:23:00.000Z,4.50
2019-01-04T22:25:32.517Z,4.30
2019-01-04T22:28:08.576Z,4.30
2019-01-04T22:30:38.670Z,4.20
2019-01-04T22:33:24.718Z,4.30
2019-01-04T22:36:03.814Z,4.40
2019-01-04T22:38:40.037Z,4.20
2019-01-04T22:41:10.120Z,4.20
2019-01-04T22:43:40.191Z,4.20
2019-01-04T22:46:10.342Z,4.30
2019-01-04T22:48:43.180Z,4.30
2019-01-04T22:51:28.978Z,4.40
2019-01-04T22:53:59.060Z,4.30
2019-01-04T22:56:29.733Z,4.40
2019-01-04T22:59:02.741Z,4.30
2019-01-04T23:01:51.012Z,4.40
2019-01-04T23:04:23.891Z,4.20
2019-01-04T23:07:10.192Z,4.30
2019-01-04T23:09:55.294Z,4.30
2019-01-04T23:12:25.407Z,4.40
2019-01-04T23:15:11.434Z,4.50
2019-01-04T23:17:41.591Z,4.30
2019-01-04T23:20:27.710Z,4.30
2019-01-04T23:23:06.902Z,4.20
2019-01-04T23:25:42.680Z,4.30
2019-01-04T23:28:28.808Z,4.40
2019-01-04T23:31:01.762Z,4.40
2019-01-04T23:33:43.660Z,4.40
2019-01-04T23:36:31.786Z,4.30
2019-01-04T23:39:04.622Z,4.30
2019-01-04T23:41:50.730Z,4.30
2019-01-04T23:44:26.514Z,4.40
2019-01-04T23:46:59.426Z,4.30
2019-01-04T23:49:38.153Z,4.30
2019-01-04T23:52:24.586Z,4.30
2019-01-04T23:55:06.541Z,4.30
2019-01-04T23:57:51.690Z,4.30
